ALK89L VCBI-VGHS
Flight info
| Callsign | ALK89L |
|---|---|
| Flight time | 2h 44m |
| Altitude | 35000 |
| Route | ATETA1D ATETA DCT SAGOR DCT SUGAN Q10 PONOG DCT BEMAK A462 AKEVO |
| Aircraft | A320/M-SDE3FGHIRWY/LB1 |
Departure
| Time | 2026-04-27 13:42 |
|---|---|
| Airport | Bandaranaike International Colombo Airport (VCBI) |
Arrival
| Time | 2026-04-27 16:26 |
|---|---|
| Airport | Hazrat Shahjalal International Airport (VGHS) |
| Time | Latitude | Longitude | Altitude | Speed | Heading |
|---|---|---|---|---|---|
| 2026-04-27 13:25 | 7.17741 | 79.88429 | 27 ft | 0 kts | 217° |
| 2026-04-27 13:33 | 7.17741 | 79.88430 | 27 ft | 0 kts | 217° |
| 2026-04-27 13:34 | 7.17742 | 79.88431 | 27 ft | 2 kts | 217° |
| 2026-04-27 13:34 | 7.17764 | 79.88445 | 4 ft | 4 kts | 208° |
| 2026-04-27 13:35 | 7.17788 | 79.88458 | 27 ft | 4 kts | 208° |
| 2026-04-27 13:35 | 7.17808 | 79.88472 | 27 ft | 4 kts | 249° |
| 2026-04-27 13:35 | 7.17810 | 79.88494 | 27 ft | 4 kts | 286° |
| 2026-04-27 13:35 | 7.17798 | 79.88518 | 27 ft | 4 kts | 310° |
| 2026-04-27 13:36 | 7.17785 | 79.88533 | 27 ft | 0 kts | 307° |
| 2026-04-27 13:38 | 7.17791 | 79.88525 | 27 ft | 3 kts | 307° |
| 2026-04-27 13:38 | 7.17808 | 79.88502 | 27 ft | 5 kts | 307° |
| 2026-04-27 13:38 | 7.17832 | 79.88470 | 27 ft | 6 kts | 307° |
| 2026-04-27 13:38 | 7.17860 | 79.88432 | 27 ft | 7 kts | 301° |
| 2026-04-27 13:39 | 7.17841 | 79.88391 | 27 ft | 7 kts | 223° |
| 2026-04-27 13:39 | 7.17800 | 79.88360 | 27 ft | 8 kts | 216° |
| 2026-04-27 13:39 | 7.17752 | 79.88324 | 28 ft | 9 kts | 216° |
| 2026-04-27 13:39 | 7.17697 | 79.88284 | 28 ft | 10 kts | 216° |
| 2026-04-27 13:40 | 7.17632 | 79.88232 | 28 ft | 14 kts | 218° |
| 2026-04-27 13:40 | 7.17538 | 79.88161 | 27 ft | 18 kts | 217° |
| 2026-04-27 13:40 | 7.17451 | 79.88094 | 27 ft | 13 kts | 217° |
| 2026-04-27 13:40 | 7.17437 | 79.88020 | 28 ft | 13 kts | 304° |
| 2026-04-27 13:41 | 7.17482 | 79.87960 | 29 ft | 10 kts | 307° |
| 2026-04-27 13:41 | 7.17538 | 79.87938 | 30 ft | 10 kts | 35° |
| 2026-04-27 13:41 | 7.17628 | 79.88003 | 30 ft | 36 kts | 37° |
| 2026-04-27 13:41 | 7.18006 | 79.88292 | 29 ft | 97 kts | 37° |
| 2026-04-27 13:42 | 7.18683 | 79.88809 | 30 ft | 145 kts | 37° |
| 2026-04-27 13:42 | 7.19575 | 79.89485 | 207 ft | 166 kts | 37° |
| 2026-04-27 13:42 | 7.20538 | 79.90107 | 861 ft | 161 kts | 15° |
| 2026-04-27 13:42 | 7.21651 | 79.90078 | 1264 ft | 163 kts | 345° |
| 2026-04-27 13:43 | 7.22763 | 79.89806 | 1640 ft | 168 kts | 344° |
| 2026-04-27 13:43 | 7.23950 | 79.89496 | 1754 ft | 188 kts | 344° |
| 2026-04-27 13:43 | 7.25286 | 79.89145 | 1933 ft | 208 kts | 344° |
| 2026-04-27 13:43 | 7.26757 | 79.88760 | 2129 ft | 230 kts | 345° |
| 2026-04-27 13:44 | 7.28403 | 79.88406 | 2367 ft | 254 kts | 352° |
| 2026-04-27 13:44 | 7.29600 | 79.88304 | 2597 ft | 266 kts | 358° |
| 2026-04-27 13:44 | 7.31481 | 79.88313 | 3087 ft | 274 kts | 2° |
| 2026-04-27 13:44 | 7.33388 | 79.88398 | 3893 ft | 274 kts | 3° |
| 2026-04-27 13:45 | 7.35296 | 79.88488 | 4681 ft | 275 kts | 4° |
| 2026-04-27 13:45 | 7.37213 | 79.88561 | 5406 ft | 277 kts | 3° |
| 2026-04-27 13:45 | 7.39151 | 79.88616 | 6120 ft | 280 kts | 2° |
| 2026-04-27 13:45 | 7.41105 | 79.88647 | 6785 ft | 282 kts | 2° |
| 2026-04-27 13:46 | 7.43079 | 79.88659 | 7441 ft | 285 kts | 1° |
| 2026-04-27 13:46 | 7.45068 | 79.88662 | 8102 ft | 287 kts | 1° |
| 2026-04-27 13:46 | 7.47074 | 79.88664 | 8747 ft | 290 kts | 1° |
| 2026-04-27 13:46 | 7.49097 | 79.88665 | 9397 ft | 292 kts | 1° |
| 2026-04-27 13:47 | 7.51139 | 79.88669 | 10003 ft | 295 kts | 2° |
| 2026-04-27 13:47 | 7.53244 | 79.88673 | 10225 ft | 313 kts | 1° |
| 2026-04-27 13:47 | 7.55486 | 79.88678 | 10348 ft | 332 kts | 1° |
| 2026-04-27 13:47 | 7.57857 | 79.88683 | 10482 ft | 349 kts | 1° |
| 2026-04-27 13:48 | 7.60311 | 79.88688 | 10859 ft | 356 kts | 1° |
| 2026-04-27 13:48 | 7.62803 | 79.88689 | 11354 ft | 359 kts | 1° |
| 2026-04-27 13:48 | 7.65315 | 79.88688 | 11860 ft | 363 kts | 1° |
| 2026-04-27 13:48 | 7.67814 | 79.88681 | 12361 ft | 366 kts | 0° |
| 2026-04-27 13:49 | 7.70370 | 79.88659 | 12849 ft | 368 kts | 3° |
| 2026-04-27 13:49 | 7.72971 | 79.88802 | 13359 ft | 371 kts | 6° |
| 2026-04-27 13:49 | 7.75552 | 79.89043 | 13821 ft | 374 kts | 7° |
| 2026-04-27 13:49 | 7.78151 | 79.89324 | 14257 ft | 377 kts | 8° |
| 2026-04-27 13:50 | 7.80762 | 79.89606 | 14694 ft | 379 kts | 7° |
| 2026-04-27 13:50 | 7.83397 | 79.89873 | 15132 ft | 382 kts | 7° |
| 2026-04-27 13:50 | 7.86016 | 79.90115 | 15564 ft | 385 kts | 7° |
| 2026-04-27 13:50 | 7.88728 | 79.90348 | 16008 ft | 387 kts | 7° |
| 2026-04-27 13:51 | 7.91388 | 79.90567 | 16439 ft | 390 kts | 6° |
| 2026-04-27 13:51 | 7.94136 | 79.90791 | 16875 ft | 393 kts | 6° |
| 2026-04-27 13:51 | 7.96837 | 79.91011 | 17305 ft | 396 kts | 7° |
| 2026-04-27 13:51 | 7.99624 | 79.91240 | 17752 ft | 398 kts | 7° |
| 2026-04-27 13:52 | 8.02398 | 79.91472 | 18182 ft | 401 kts | 7° |
| 2026-04-27 13:52 | 8.05152 | 79.91705 | 18562 ft | 404 kts | 7° |
| 2026-04-27 13:52 | 8.07957 | 79.91943 | 18969 ft | 406 kts | 7° |
| 2026-04-27 13:52 | 8.10779 | 79.92181 | 19370 ft | 408 kts | 7° |
| 2026-04-27 13:53 | 8.16473 | 79.92658 | 20195 ft | 413 kts | 7° |
| 2026-04-27 13:53 | 8.19342 | 79.92899 | 20594 ft | 415 kts | 7° |
| 2026-04-27 13:53 | 8.22225 | 79.93141 | 20986 ft | 417 kts | 7° |
| 2026-04-27 13:54 | 8.25127 | 79.93385 | 21354 ft | 420 kts | 7° |
| 2026-04-27 13:54 | 8.28046 | 79.93630 | 21722 ft | 422 kts | 7° |
| 2026-04-27 13:54 | 8.30979 | 79.93878 | 22076 ft | 424 kts | 7° |
| 2026-04-27 13:54 | 8.33926 | 79.94129 | 22420 ft | 426 kts | 7° |
| 2026-04-27 13:55 | 8.36890 | 79.94380 | 22762 ft | 428 kts | 7° |
| 2026-04-27 13:55 | 8.39868 | 79.94629 | 23096 ft | 431 kts | 7° |
| 2026-04-27 13:55 | 8.42863 | 79.94880 | 23411 ft | 433 kts | 6° |
| 2026-04-27 13:55 | 8.45868 | 79.95132 | 23677 ft | 434 kts | 6° |
| 2026-04-27 13:56 | 8.48883 | 79.95385 | 23950 ft | 436 kts | 6° |
| 2026-04-27 13:56 | 8.51911 | 79.95639 | 24223 ft | 437 kts | 6° |
| 2026-04-27 13:56 | 8.54947 | 79.95892 | 24492 ft | 439 kts | 6° |
| 2026-04-27 13:56 | 8.57997 | 79.96146 | 24755 ft | 440 kts | 6° |
| 2026-04-27 13:57 | 8.61053 | 79.96400 | 25014 ft | 441 kts | 6° |
| 2026-04-27 13:57 | 8.64118 | 79.96659 | 25280 ft | 443 kts | 6° |
| 2026-04-27 13:57 | 8.67188 | 79.96920 | 25539 ft | 444 kts | 6° |
| 2026-04-27 13:57 | 8.70270 | 79.97180 | 25792 ft | 445 kts | 6° |
| 2026-04-27 13:58 | 8.73359 | 79.97444 | 26044 ft | 446 kts | 6° |
| 2026-04-27 13:58 | 8.76455 | 79.97712 | 26293 ft | 447 kts | 6° |
| 2026-04-27 13:58 | 8.79560 | 79.97979 | 26537 ft | 448 kts | 6° |
| 2026-04-27 13:58 | 8.82671 | 79.98241 | 26776 ft | 449 kts | 6° |
| 2026-04-27 13:59 | 8.85790 | 79.98501 | 27018 ft | 450 kts | 6° |
| 2026-04-27 13:59 | 8.88917 | 79.98761 | 27285 ft | 451 kts | 6° |
| 2026-04-27 13:59 | 8.92037 | 79.99019 | 27647 ft | 449 kts | 6° |
| 2026-04-27 13:59 | 8.95144 | 79.99281 | 28012 ft | 448 kts | 6° |
| 2026-04-27 14:00 | 8.98250 | 79.99544 | 28319 ft | 448 kts | 6° |
| 2026-04-27 14:00 | 9.01352 | 79.99808 | 28646 ft | 447 kts | 6° |
| 2026-04-27 14:00 | 9.04450 | 80.00072 | 29008 ft | 446 kts | 6° |
| 2026-04-27 14:00 | 9.07543 | 80.00337 | 29387 ft | 445 kts | 6° |
| 2026-04-27 14:01 | 9.10626 | 80.00600 | 29778 ft | 444 kts | 6° |
| 2026-04-27 14:01 | 9.13702 | 80.00857 | 30115 ft | 443 kts | 6° |
| 2026-04-27 14:01 | 9.16771 | 80.01115 | 30425 ft | 442 kts | 6° |
| 2026-04-27 14:01 | 9.19834 | 80.01373 | 30732 ft | 442 kts | 6° |
| 2026-04-27 14:02 | 9.22894 | 80.01628 | 31036 ft | 441 kts | 6° |
| 2026-04-27 14:02 | 9.25951 | 80.01885 | 31346 ft | 440 kts | 6° |
| 2026-04-27 14:02 | 9.29002 | 80.02144 | 31659 ft | 440 kts | 6° |
| 2026-04-27 14:02 | 9.32008 | 80.02400 | 31966 ft | 439 kts | 6° |
| 2026-04-27 14:03 | 9.35052 | 80.02662 | 32276 ft | 439 kts | 6° |
| 2026-04-27 14:03 | 9.38091 | 80.02921 | 32593 ft | 438 kts | 6° |
| 2026-04-27 14:03 | 9.41128 | 80.03177 | 32908 ft | 437 kts | 6° |
| 2026-04-27 14:03 | 9.44156 | 80.03431 | 33218 ft | 437 kts | 6° |
| 2026-04-27 14:04 | 9.47183 | 80.03685 | 33508 ft | 436 kts | 6° |
| 2026-04-27 14:04 | 9.50206 | 80.03938 | 33800 ft | 436 kts | 6° |
| 2026-04-27 14:04 | 9.53224 | 80.04191 | 34041 ft | 435 kts | 6° |
| 2026-04-27 14:04 | 9.56243 | 80.04445 | 34244 ft | 435 kts | 6° |
| 2026-04-27 14:05 | 9.59262 | 80.04702 | 34472 ft | 435 kts | 6° |
| 2026-04-27 14:05 | 9.62280 | 80.04960 | 34675 ft | 436 kts | 6° |
| 2026-04-27 14:05 | 9.65304 | 80.05221 | 34799 ft | 437 kts | 6° |
| 2026-04-27 14:06 | 9.71424 | 80.05749 | 34837 ft | 447 kts | 5° |
| 2026-04-27 14:06 | 9.77696 | 80.06280 | 34836 ft | 457 kts | 6° |
| 2026-04-27 14:07 | 9.84057 | 80.06815 | 34830 ft | 460 kts | 6° |
| 2026-04-27 14:07 | 9.90433 | 80.07353 | 34830 ft | 460 kts | 5° |
| 2026-04-27 14:08 | 9.96807 | 80.07905 | 34827 ft | 460 kts | 7° |
| 2026-04-27 14:08 | 10.02929 | 80.09628 | 34831 ft | 457 kts | 26° |
| 2026-04-27 14:09 | 10.08641 | 80.12486 | 34825 ft | 458 kts | 26° |
| 2026-04-27 14:09 | 10.14370 | 80.15346 | 34822 ft | 459 kts | 26° |
| 2026-04-27 14:10 | 10.20109 | 80.18209 | 34834 ft | 459 kts | 26° |
| 2026-04-27 14:10 | 10.25805 | 80.21051 | 34838 ft | 459 kts | 26° |
| 2026-04-27 14:11 | 10.31532 | 80.23914 | 34839 ft | 459 kts | 26° |
| 2026-04-27 14:11 | 10.37260 | 80.26781 | 34839 ft | 459 kts | 26° |
| 2026-04-27 14:12 | 10.42982 | 80.29647 | 34832 ft | 459 kts | 26° |
| 2026-04-27 14:12 | 10.48719 | 80.32514 | 34822 ft | 460 kts | 26° |
| 2026-04-27 14:13 | 10.54467 | 80.35389 | 34823 ft | 461 kts | 26° |
| 2026-04-27 14:13 | 10.60225 | 80.38283 | 34822 ft | 462 kts | 26° |
| 2026-04-27 14:14 | 10.65991 | 80.41175 | 34826 ft | 462 kts | 26° |
| 2026-04-27 14:14 | 10.71763 | 80.44067 | 34832 ft | 463 kts | 26° |
| 2026-04-27 14:15 | 10.77537 | 80.46963 | 34834 ft | 463 kts | 26° |
| 2026-04-27 14:15 | 10.83313 | 80.49862 | 34824 ft | 463 kts | 26° |
| 2026-04-27 14:16 | 10.89103 | 80.52771 | 34817 ft | 465 kts | 25° |
| 2026-04-27 14:16 | 10.94903 | 80.55686 | 34818 ft | 465 kts | 25° |
| 2026-04-27 14:17 | 11.00707 | 80.58603 | 34820 ft | 465 kts | 26° |
| 2026-04-27 14:17 | 11.06520 | 80.61524 | 34824 ft | 465 kts | 26° |
| 2026-04-27 14:18 | 11.12321 | 80.64442 | 34827 ft | 465 kts | 25° |
| 2026-04-27 14:18 | 11.18129 | 80.67360 | 34821 ft | 466 kts | 25° |
| 2026-04-27 14:19 | 11.23945 | 80.70285 | 34811 ft | 467 kts | 25° |
| 2026-04-27 14:19 | 11.29774 | 80.73227 | 34812 ft | 468 kts | 25° |
| 2026-04-27 14:20 | 11.35571 | 80.76155 | 34813 ft | 468 kts | 25° |
| 2026-04-27 14:20 | 11.41415 | 80.79100 | 34815 ft | 469 kts | 26° |
| 2026-04-27 14:21 | 11.47265 | 80.82049 | 34816 ft | 469 kts | 25° |
| 2026-04-27 14:21 | 11.53116 | 80.85000 | 34817 ft | 469 kts | 26° |
| 2026-04-27 14:22 | 11.58964 | 80.87957 | 34817 ft | 469 kts | 25° |
| 2026-04-27 14:22 | 11.64814 | 80.90912 | 34816 ft | 469 kts | 25° |
| 2026-04-27 14:23 | 11.70662 | 80.93869 | 34824 ft | 469 kts | 25° |
| 2026-04-27 14:23 | 11.76504 | 80.96827 | 34825 ft | 469 kts | 25° |
| 2026-04-27 14:24 | 11.82347 | 80.99784 | 34825 ft | 468 kts | 25° |
| 2026-04-27 14:24 | 11.88188 | 81.02740 | 34822 ft | 468 kts | 25° |
| 2026-04-27 14:25 | 11.94030 | 81.05689 | 34816 ft | 469 kts | 25° |
| 2026-04-27 14:25 | 11.99877 | 81.08645 | 34816 ft | 469 kts | 25° |
| 2026-04-27 14:26 | 12.05723 | 81.11607 | 34811 ft | 469 kts | 25° |
| 2026-04-27 14:26 | 12.11573 | 81.14572 | 34813 ft | 469 kts | 25° |
| 2026-04-27 14:27 | 12.17423 | 81.17545 | 34814 ft | 469 kts | 25° |
| 2026-04-27 14:27 | 12.23276 | 81.20517 | 34814 ft | 470 kts | 25° |
| 2026-04-27 14:28 | 12.29126 | 81.23494 | 34820 ft | 470 kts | 25° |
| 2026-04-27 14:28 | 12.34977 | 81.26473 | 34817 ft | 470 kts | 25° |
| 2026-04-27 14:29 | 12.40841 | 81.29443 | 34820 ft | 470 kts | 25° |
| 2026-04-27 14:29 | 12.46698 | 81.32416 | 34823 ft | 470 kts | 25° |
| 2026-04-27 14:30 | 12.52549 | 81.35398 | 34826 ft | 470 kts | 25° |
| 2026-04-27 14:30 | 12.58387 | 81.38380 | 34828 ft | 470 kts | 25° |
| 2026-04-27 14:31 | 12.64242 | 81.41359 | 34827 ft | 470 kts | 24° |
| 2026-04-27 14:31 | 12.70098 | 81.44341 | 34825 ft | 470 kts | 25° |
| 2026-04-27 14:32 | 12.74963 | 81.46826 | 34825 ft | 470 kts | 25° |
| 2026-04-27 14:32 | 12.80825 | 81.49810 | 34826 ft | 470 kts | 25° |
| 2026-04-27 14:33 | 12.86688 | 81.52799 | 34827 ft | 471 kts | 25° |
| 2026-04-27 14:33 | 12.92551 | 81.55789 | 34828 ft | 471 kts | 25° |
| 2026-04-27 14:34 | 12.99364 | 81.59275 | 34829 ft | 471 kts | 25° |
| 2026-04-27 14:34 | 13.04277 | 81.61789 | 34829 ft | 471 kts | 24° |
| 2026-04-27 14:35 | 13.10144 | 81.64792 | 34831 ft | 472 kts | 24° |
| 2026-04-27 14:35 | 13.16020 | 81.67797 | 34832 ft | 471 kts | 25° |
| 2026-04-27 14:36 | 13.21889 | 81.70802 | 34834 ft | 471 kts | 25° |
| 2026-04-27 14:36 | 13.27758 | 81.73805 | 34834 ft | 471 kts | 25° |
| 2026-04-27 14:37 | 13.33618 | 81.76805 | 34835 ft | 471 kts | 25° |
| 2026-04-27 14:37 | 13.39437 | 81.79795 | 34828 ft | 471 kts | 24° |
| 2026-04-27 14:38 | 13.45302 | 81.82806 | 34823 ft | 471 kts | 24° |
| 2026-04-27 14:38 | 13.51175 | 81.85816 | 34823 ft | 472 kts | 24° |
| 2026-04-27 14:39 | 13.57044 | 81.88833 | 34821 ft | 472 kts | 24° |
| 2026-04-27 14:39 | 13.62914 | 81.91852 | 34822 ft | 472 kts | 24° |
| 2026-04-27 14:40 | 13.68791 | 81.94869 | 34823 ft | 472 kts | 24° |
| 2026-04-27 14:40 | 13.74681 | 81.97899 | 34831 ft | 472 kts | 24° |
| 2026-04-27 14:41 | 13.80525 | 82.00911 | 34824 ft | 473 kts | 24° |
| 2026-04-27 14:41 | 13.86420 | 82.03950 | 34825 ft | 474 kts | 24° |
| 2026-04-27 14:42 | 13.92317 | 82.06992 | 34827 ft | 474 kts | 24° |
| 2026-04-27 14:42 | 13.98219 | 82.10033 | 34829 ft | 474 kts | 24° |
| 2026-04-27 14:43 | 14.04118 | 82.13078 | 34833 ft | 474 kts | 24° |
| 2026-04-27 14:43 | 14.10018 | 82.16127 | 34834 ft | 474 kts | 24° |
| 2026-04-27 14:44 | 14.15923 | 82.19169 | 34835 ft | 474 kts | 23° |
| 2026-04-27 14:44 | 14.21825 | 82.22217 | 34834 ft | 475 kts | 24° |
| 2026-04-27 14:45 | 14.27727 | 82.25275 | 34832 ft | 475 kts | 24° |
| 2026-04-27 14:45 | 14.33634 | 82.28339 | 34832 ft | 475 kts | 24° |
| 2026-04-27 14:46 | 14.39505 | 82.31385 | 34826 ft | 475 kts | 24° |
| 2026-04-27 14:46 | 14.45414 | 82.34440 | 34829 ft | 475 kts | 23° |
| 2026-04-27 14:47 | 14.51327 | 82.37497 | 34828 ft | 475 kts | 23° |
| 2026-04-27 14:47 | 14.57235 | 82.40562 | 34831 ft | 475 kts | 23° |
| 2026-04-27 14:48 | 14.63139 | 82.43625 | 34831 ft | 474 kts | 23° |
| 2026-04-27 14:48 | 14.71988 | 82.48231 | 34828 ft | 475 kts | 23° |
| 2026-04-27 14:49 | 14.77855 | 82.51282 | 34831 ft | 475 kts | 23° |
| 2026-04-27 14:49 | 14.83767 | 82.54352 | 34831 ft | 475 kts | 22° |
| 2026-04-27 14:50 | 14.89674 | 82.57419 | 34830 ft | 475 kts | 22° |
| 2026-04-27 14:50 | 14.95574 | 82.60494 | 34828 ft | 475 kts | 22° |
| 2026-04-27 14:51 | 15.01482 | 82.63580 | 34829 ft | 475 kts | 22° |
| 2026-04-27 14:51 | 15.06386 | 82.66142 | 34829 ft | 475 kts | 22° |
| 2026-04-27 14:52 | 15.13290 | 82.69748 | 34829 ft | 475 kts | 22° |
| 2026-04-27 14:52 | 15.19201 | 82.72832 | 34830 ft | 475 kts | 22° |
| 2026-04-27 14:53 | 15.25106 | 82.75911 | 34831 ft | 475 kts | 22° |
| 2026-04-27 14:53 | 15.31017 | 82.78999 | 34831 ft | 475 kts | 22° |
| 2026-04-27 14:54 | 15.36772 | 82.82012 | 34830 ft | 475 kts | 22° |
| 2026-04-27 14:54 | 15.42623 | 82.85416 | 34824 ft | 480 kts | 33° |
| 2026-04-27 14:55 | 15.47844 | 82.89773 | 34827 ft | 482 kts | 35° |
| 2026-04-27 14:55 | 15.53084 | 82.94191 | 34838 ft | 482 kts | 34° |
| 2026-04-27 14:56 | 15.58279 | 82.98590 | 34836 ft | 482 kts | 34° |
| 2026-04-27 14:56 | 15.63478 | 83.02995 | 34831 ft | 483 kts | 34° |
| 2026-04-27 14:57 | 15.68645 | 83.07372 | 34830 ft | 483 kts | 34° |
| 2026-04-27 14:57 | 15.73854 | 83.11775 | 34832 ft | 483 kts | 34° |
| 2026-04-27 14:58 | 15.79104 | 83.16213 | 34822 ft | 492 kts | 34° |
| 2026-04-27 14:58 | 15.84456 | 83.20746 | 34820 ft | 500 kts | 35° |
| 2026-04-27 14:59 | 15.89846 | 83.25324 | 34829 ft | 501 kts | 34° |
| 2026-04-27 14:59 | 15.95240 | 83.29914 | 34819 ft | 501 kts | 34° |
| 2026-04-27 15:00 | 16.00640 | 83.34498 | 34823 ft | 501 kts | 34° |
| 2026-04-27 15:00 | 16.06044 | 83.39093 | 34829 ft | 502 kts | 34° |
| 2026-04-27 15:01 | 16.11451 | 83.43694 | 34830 ft | 502 kts | 34° |
| 2026-04-27 15:01 | 16.16863 | 83.48298 | 34835 ft | 503 kts | 34° |
| 2026-04-27 15:02 | 16.22277 | 83.52905 | 34838 ft | 503 kts | 34° |
| 2026-04-27 15:02 | 16.27694 | 83.57512 | 34842 ft | 503 kts | 34° |
| 2026-04-27 15:03 | 16.33105 | 83.62131 | 34843 ft | 503 kts | 34° |
| 2026-04-27 15:03 | 16.38515 | 83.66755 | 34843 ft | 503 kts | 34° |
| 2026-04-27 15:04 | 16.43922 | 83.71384 | 34839 ft | 503 kts | 34° |
| 2026-04-27 15:04 | 16.49325 | 83.76012 | 34839 ft | 503 kts | 34° |
| 2026-04-27 15:05 | 16.54738 | 83.80638 | 34833 ft | 503 kts | 34° |
| 2026-04-27 15:05 | 16.60146 | 83.85267 | 34834 ft | 503 kts | 34° |
| 2026-04-27 15:06 | 16.65549 | 83.89894 | 34845 ft | 502 kts | 34° |
| 2026-04-27 15:06 | 16.70938 | 83.94519 | 34838 ft | 501 kts | 34° |
| 2026-04-27 15:07 | 16.76319 | 83.99146 | 34835 ft | 501 kts | 34° |
| 2026-04-27 15:07 | 16.81698 | 84.03766 | 34834 ft | 501 kts | 34° |
| 2026-04-27 15:08 | 16.87078 | 84.08380 | 34832 ft | 500 kts | 34° |
| 2026-04-27 15:08 | 16.92470 | 84.12968 | 34830 ft | 500 kts | 33° |
| 2026-04-27 15:09 | 16.97864 | 84.17549 | 34841 ft | 500 kts | 33° |
| 2026-04-27 15:09 | 17.03245 | 84.22135 | 34841 ft | 499 kts | 34° |
| 2026-04-27 15:10 | 17.08612 | 84.26719 | 34833 ft | 498 kts | 34° |
| 2026-04-27 15:10 | 17.13975 | 84.31301 | 34825 ft | 498 kts | 33° |
| 2026-04-27 15:11 | 17.19337 | 84.35876 | 34828 ft | 497 kts | 33° |
| 2026-04-27 15:11 | 17.24700 | 84.40451 | 34829 ft | 497 kts | 33° |
| 2026-04-27 15:12 | 17.30055 | 84.45032 | 34824 ft | 497 kts | 34° |
| 2026-04-27 15:12 | 17.35400 | 84.49619 | 34833 ft | 497 kts | 34° |
| 2026-04-27 15:13 | 17.40751 | 84.54202 | 34825 ft | 497 kts | 33° |
| 2026-04-27 15:13 | 17.46116 | 84.58761 | 34822 ft | 496 kts | 33° |
| 2026-04-27 15:14 | 17.51478 | 84.63318 | 34826 ft | 496 kts | 33° |
| 2026-04-27 15:14 | 17.55927 | 84.67117 | 34819 ft | 496 kts | 33° |
| 2026-04-27 15:15 | 17.61279 | 84.71694 | 34820 ft | 497 kts | 33° |
| 2026-04-27 15:15 | 17.66630 | 84.76268 | 34818 ft | 497 kts | 33° |
| 2026-04-27 15:16 | 17.71981 | 84.80859 | 34812 ft | 497 kts | 33° |
| 2026-04-27 15:16 | 17.77333 | 84.85467 | 34807 ft | 498 kts | 33° |
| 2026-04-27 15:17 | 17.82691 | 84.90078 | 34809 ft | 498 kts | 33° |
| 2026-04-27 15:17 | 17.88050 | 84.94697 | 34809 ft | 499 kts | 33° |
| 2026-04-27 15:18 | 17.93408 | 84.99320 | 34811 ft | 499 kts | 33° |
| 2026-04-27 15:18 | 17.98774 | 85.03939 | 34808 ft | 499 kts | 33° |
| 2026-04-27 15:19 | 18.04138 | 85.08563 | 34823 ft | 499 kts | 33° |
| 2026-04-27 15:19 | 18.09505 | 85.13193 | 34820 ft | 499 kts | 33° |
| 2026-04-27 15:20 | 18.14866 | 85.17840 | 34814 ft | 499 kts | 33° |
| 2026-04-27 15:20 | 18.20227 | 85.22482 | 34810 ft | 499 kts | 33° |
| 2026-04-27 15:21 | 18.25591 | 85.27130 | 34812 ft | 499 kts | 33° |
| 2026-04-27 15:21 | 18.30951 | 85.31780 | 34815 ft | 499 kts | 33° |
| 2026-04-27 15:22 | 18.36314 | 85.36425 | 34813 ft | 499 kts | 33° |
| 2026-04-27 15:22 | 18.41679 | 85.41076 | 34816 ft | 499 kts | 33° |
| 2026-04-27 15:23 | 18.47033 | 85.45729 | 34821 ft | 499 kts | 33° |
| 2026-04-27 15:23 | 18.52381 | 85.50382 | 34816 ft | 498 kts | 33° |
| 2026-04-27 15:24 | 18.57728 | 85.55033 | 34814 ft | 498 kts | 33° |
| 2026-04-27 15:24 | 18.63072 | 85.59685 | 34816 ft | 498 kts | 33° |
| 2026-04-27 15:25 | 18.68410 | 85.64344 | 34812 ft | 498 kts | 33° |
| 2026-04-27 15:25 | 18.73746 | 85.69005 | 34819 ft | 498 kts | 33° |
| 2026-04-27 15:26 | 18.79048 | 85.73636 | 34820 ft | 498 kts | 33° |
| 2026-04-27 15:26 | 18.84382 | 85.78303 | 34817 ft | 498 kts | 33° |
| 2026-04-27 15:27 | 18.89724 | 85.82963 | 34813 ft | 498 kts | 33° |
| 2026-04-27 15:27 | 18.95062 | 85.87618 | 34807 ft | 497 kts | 33° |
| 2026-04-27 15:28 | 19.00412 | 85.92250 | 34802 ft | 497 kts | 33° |
| 2026-04-27 15:28 | 19.05773 | 85.96862 | 34810 ft | 497 kts | 33° |
| 2026-04-27 15:29 | 19.11130 | 86.01477 | 34800 ft | 497 kts | 33° |
| 2026-04-27 15:29 | 19.16490 | 86.06114 | 34795 ft | 498 kts | 33° |
| 2026-04-27 15:30 | 19.21851 | 86.10760 | 34789 ft | 498 kts | 33° |
| 2026-04-27 15:30 | 19.27214 | 86.15405 | 34786 ft | 498 kts | 33° |
| 2026-04-27 15:31 | 19.32576 | 86.20052 | 34794 ft | 498 kts | 33° |
| 2026-04-27 15:31 | 19.37936 | 86.24695 | 34791 ft | 498 kts | 33° |
| 2026-04-27 15:32 | 19.43293 | 86.29345 | 34802 ft | 498 kts | 32° |
| 2026-04-27 15:32 | 19.48663 | 86.34012 | 34798 ft | 500 kts | 32° |
| 2026-04-27 15:33 | 19.54044 | 86.38698 | 34786 ft | 501 kts | 32° |
| 2026-04-27 15:33 | 19.59426 | 86.43396 | 34787 ft | 501 kts | 32° |
| 2026-04-27 15:34 | 19.64816 | 86.48092 | 34781 ft | 501 kts | 32° |
| 2026-04-27 15:34 | 19.70219 | 86.52771 | 34788 ft | 501 kts | 32° |
| 2026-04-27 15:35 | 19.75622 | 86.57458 | 34781 ft | 502 kts | 32° |
| 2026-04-27 15:35 | 19.81020 | 86.62158 | 34793 ft | 502 kts | 32° |
| 2026-04-27 15:36 | 19.86414 | 86.66861 | 34796 ft | 501 kts | 32° |
| 2026-04-27 15:36 | 19.91802 | 86.71562 | 34784 ft | 501 kts | 32° |
| 2026-04-27 15:37 | 19.97187 | 86.76268 | 34784 ft | 501 kts | 32° |
| 2026-04-27 15:37 | 20.02569 | 86.80970 | 34787 ft | 501 kts | 32° |
| 2026-04-27 15:38 | 20.07953 | 86.85679 | 34783 ft | 501 kts | 32° |
| 2026-04-27 15:38 | 20.13335 | 86.90386 | 34794 ft | 501 kts | 33° |
| 2026-04-27 15:39 | 20.18715 | 86.95079 | 34795 ft | 500 kts | 33° |
| 2026-04-27 15:39 | 20.24083 | 86.99780 | 34792 ft | 499 kts | 33° |
| 2026-04-27 15:40 | 20.29435 | 87.04478 | 34788 ft | 498 kts | 33° |
| 2026-04-27 15:40 | 20.34782 | 87.09178 | 34785 ft | 498 kts | 33° |
| 2026-04-27 15:41 | 20.40124 | 87.13878 | 34786 ft | 498 kts | 33° |
| 2026-04-27 15:41 | 20.45469 | 87.18574 | 34794 ft | 498 kts | 33° |
| 2026-04-27 15:42 | 20.50816 | 87.23274 | 34790 ft | 498 kts | 33° |
| 2026-04-27 15:42 | 20.56169 | 87.27969 | 34785 ft | 498 kts | 33° |
| 2026-04-27 15:43 | 20.61521 | 87.32673 | 34774 ft | 498 kts | 33° |
| 2026-04-27 15:43 | 20.66901 | 87.37413 | 34786 ft | 498 kts | 33° |
| 2026-04-27 15:44 | 20.72245 | 87.42117 | 34783 ft | 497 kts | 33° |
| 2026-04-27 15:44 | 20.77576 | 87.46825 | 34776 ft | 497 kts | 33° |
| 2026-04-27 15:45 | 20.82913 | 87.51537 | 34763 ft | 499 kts | 33° |
| 2026-04-27 15:45 | 20.88273 | 87.56265 | 34753 ft | 500 kts | 32° |
| 2026-04-27 15:46 | 20.93655 | 87.60997 | 34752 ft | 501 kts | 32° |
| 2026-04-27 15:46 | 20.99042 | 87.65744 | 34777 ft | 502 kts | 33° |
| 2026-04-27 15:47 | 21.04433 | 87.70507 | 34753 ft | 503 kts | 33° |
| 2026-04-27 15:47 | 21.09817 | 87.75274 | 34776 ft | 501 kts | 33° |
| 2026-04-27 15:48 | 21.15184 | 87.80026 | 34751 ft | 502 kts | 33° |
| 2026-04-27 15:49 | 21.23287 | 87.87202 | 34732 ft | 505 kts | 33° |
| 2026-04-27 15:49 | 21.28705 | 87.92015 | 34728 ft | 506 kts | 33° |
| 2026-04-27 15:50 | 21.34134 | 87.96836 | 34734 ft | 507 kts | 33° |
| 2026-04-27 15:50 | 21.39788 | 88.01243 | 34726 ft | 496 kts | 21° |
| 2026-04-27 15:51 | 21.45865 | 88.04726 | 34738 ft | 495 kts | 21° |
| 2026-04-27 15:51 | 21.51965 | 88.08217 | 34730 ft | 498 kts | 20° |
| 2026-04-27 15:52 | 21.58082 | 88.11728 | 34733 ft | 498 kts | 20° |
| 2026-04-27 15:52 | 21.64196 | 88.15243 | 34747 ft | 498 kts | 20° |
| 2026-04-27 15:53 | 21.70311 | 88.18761 | 34754 ft | 498 kts | 20° |
| 2026-04-27 15:53 | 21.76427 | 88.22276 | 34756 ft | 498 kts | 20° |
| 2026-04-27 15:54 | 21.82540 | 88.25794 | 34750 ft | 499 kts | 20° |
| 2026-04-27 15:54 | 21.88657 | 88.29320 | 34741 ft | 499 kts | 20° |
| 2026-04-27 15:55 | 21.94784 | 88.32858 | 34742 ft | 500 kts | 20° |
| 2026-04-27 15:55 | 21.99880 | 88.35802 | 34739 ft | 500 kts | 20° |
| 2026-04-27 15:56 | 22.06006 | 88.39349 | 34726 ft | 500 kts | 20° |
| 2026-04-27 15:56 | 22.12139 | 88.42896 | 34724 ft | 500 kts | 20° |
| 2026-04-27 15:57 | 22.18275 | 88.46441 | 34727 ft | 501 kts | 20° |
| 2026-04-27 15:57 | 22.24402 | 88.49996 | 34749 ft | 499 kts | 21° |
| 2026-04-27 15:58 | 22.30501 | 88.53550 | 34749 ft | 497 kts | 21° |
| 2026-04-27 15:58 | 22.36589 | 88.57090 | 34739 ft | 496 kts | 21° |
| 2026-04-27 15:59 | 22.42663 | 88.60621 | 34737 ft | 495 kts | 21° |
| 2026-04-27 15:59 | 22.48692 | 88.64126 | 34744 ft | 496 kts | 22° |
| 2026-04-27 16:00 | 22.54766 | 88.67663 | 34744 ft | 496 kts | 22° |
| 2026-04-27 16:00 | 22.60845 | 88.71212 | 34741 ft | 496 kts | 22° |
| 2026-04-27 16:01 | 22.66924 | 88.74764 | 34738 ft | 497 kts | 22° |
| 2026-04-27 16:01 | 22.73008 | 88.78317 | 34702 ft | 497 kts | 22° |
| 2026-04-27 16:01 | 22.76044 | 88.80091 | 34117 ft | 495 kts | 22° |
| 2026-04-27 16:02 | 22.79070 | 88.81860 | 33339 ft | 493 kts | 24° |
| 2026-04-27 16:02 | 22.82060 | 88.83616 | 32530 ft | 483 kts | 25° |
| 2026-04-27 16:02 | 22.85000 | 88.85344 | 31197 ft | 479 kts | 24° |
| 2026-04-27 16:02 | 22.87906 | 88.87053 | 30356 ft | 470 kts | 24° |
| 2026-04-27 16:03 | 22.90656 | 88.88951 | 29859 ft | 469 kts | 33° |
| 2026-04-27 16:03 | 22.93111 | 88.91283 | 29236 ft | 470 kts | 42° |
| 2026-04-27 16:03 | 22.95214 | 88.93991 | 28704 ft | 469 kts | 51° |
| 2026-04-27 16:03 | 22.97016 | 88.96921 | 28145 ft | 465 kts | 53° |
| 2026-04-27 16:04 | 22.98781 | 88.99843 | 27596 ft | 460 kts | 53° |
| 2026-04-27 16:04 | 23.00524 | 89.02734 | 27061 ft | 455 kts | 53° |
| 2026-04-27 16:04 | 23.02248 | 89.05597 | 26527 ft | 451 kts | 53° |
| 2026-04-27 16:04 | 23.03959 | 89.08430 | 26007 ft | 447 kts | 53° |
| 2026-04-27 16:05 | 23.05657 | 89.11237 | 25491 ft | 443 kts | 53° |
| 2026-04-27 16:05 | 23.07316 | 89.13983 | 24999 ft | 439 kts | 53° |
| 2026-04-27 16:05 | 23.08982 | 89.16746 | 24514 ft | 435 kts | 54° |
| 2026-04-27 16:05 | 23.10633 | 89.19486 | 24039 ft | 432 kts | 53° |
| 2026-04-27 16:06 | 23.12270 | 89.22205 | 23579 ft | 428 kts | 53° |
| 2026-04-27 16:06 | 23.13891 | 89.24898 | 23076 ft | 424 kts | 53° |
| 2026-04-27 16:06 | 23.15495 | 89.27568 | 22630 ft | 420 kts | 53° |
| 2026-04-27 16:06 | 23.17083 | 89.30210 | 22189 ft | 416 kts | 53° |
| 2026-04-27 16:07 | 23.18658 | 89.32831 | 21748 ft | 413 kts | 53° |
| 2026-04-27 16:07 | 23.20223 | 89.35436 | 21308 ft | 410 kts | 53° |
| 2026-04-27 16:07 | 23.21777 | 89.38024 | 20857 ft | 408 kts | 53° |
| 2026-04-27 16:07 | 23.23321 | 89.40597 | 20414 ft | 405 kts | 53° |
| 2026-04-27 16:08 | 23.24857 | 89.43158 | 19962 ft | 403 kts | 53° |
| 2026-04-27 16:08 | 23.26385 | 89.45705 | 19495 ft | 401 kts | 53° |
| 2026-04-27 16:08 | 23.27907 | 89.48238 | 19029 ft | 399 kts | 52° |
| 2026-04-27 16:08 | 23.29421 | 89.50764 | 18547 ft | 398 kts | 53° |
| 2026-04-27 16:09 | 23.30926 | 89.53286 | 18066 ft | 397 kts | 53° |
| 2026-04-27 16:09 | 23.33932 | 89.58335 | 17048 ft | 392 kts | 53° |
| 2026-04-27 16:09 | 23.35413 | 89.60814 | 16566 ft | 389 kts | 53° |
| 2026-04-27 16:10 | 23.38625 | 89.65463 | 15576 ft | 379 kts | 39° |
| 2026-04-27 16:10 | 23.42630 | 89.69121 | 14579 ft | 374 kts | 35° |
| 2026-04-27 16:11 | 23.44635 | 89.70927 | 14104 ft | 373 kts | 34° |
| 2026-04-27 16:11 | 23.48618 | 89.74532 | 13091 ft | 371 kts | 35° |
| 2026-04-27 16:12 | 23.52825 | 89.77580 | 12144 ft | 356 kts | 17° |
| 2026-04-27 16:12 | 23.55157 | 89.78376 | 11683 ft | 348 kts | 8° |
| 2026-04-27 16:12 | 23.59831 | 89.79640 | 10778 ft | 344 kts | 9° |
| 2026-04-27 16:13 | 23.62147 | 89.80273 | 10340 ft | 343 kts | 9° |
| 2026-04-27 16:13 | 23.66642 | 89.81511 | 10019 ft | 322 kts | 9° |
| 2026-04-27 16:13 | 23.68777 | 89.82102 | 9898 ft | 311 kts | 9° |
| 2026-04-27 16:14 | 23.72905 | 89.83240 | 9305 ft | 305 kts | 9° |
| 2026-04-27 16:14 | 23.76797 | 89.85082 | 8776 ft | 307 kts | 32° |
| 2026-04-27 16:15 | 23.80026 | 89.88122 | 8794 ft | 306 kts | 36° |
| 2026-04-27 16:15 | 23.83248 | 89.91166 | 8794 ft | 306 kts | 35° |
| 2026-04-27 16:16 | 23.86471 | 89.94206 | 8794 ft | 306 kts | 35° |
| 2026-04-27 16:16 | 23.89693 | 89.97249 | 8794 ft | 306 kts | 35° |
| 2026-04-27 16:17 | 23.92907 | 90.00300 | 8788 ft | 307 kts | 37° |
| 2026-04-27 16:17 | 23.95676 | 90.04002 | 7991 ft | 324 kts | 51° |
| 2026-04-27 16:18 | 23.98375 | 90.08028 | 6946 ft | 332 kts | 52° |
| 2026-04-27 16:18 | 24.01001 | 90.11963 | 6645 ft | 303 kts | 52° |
| 2026-04-27 16:19 | 24.02245 | 90.13820 | 6076 ft | 302 kts | 53° |
| 2026-04-27 16:19 | 24.03464 | 90.15632 | 5765 ft | 290 kts | 53° |
| 2026-04-27 16:20 | 24.06382 | 90.20998 | 4824 ft | 262 kts | 96° |
| 2026-04-27 16:20 | 24.05891 | 90.22748 | 4661 ft | 228 kts | 136° |
| 2026-04-27 16:20 | 24.03526 | 90.24520 | 4197 ft | 203 kts | 153° |
| 2026-04-27 16:21 | 24.02390 | 90.25414 | 3926 ft | 200 kts | 152° |
| 2026-04-27 16:21 | 23.99133 | 90.28011 | 3191 ft | 187 kts | 153° |
| 2026-04-27 16:22 | 23.98093 | 90.28839 | 2956 ft | 183 kts | 153° |
| 2026-04-27 16:22 | 23.96120 | 90.30411 | 2497 ft | 166 kts | 150° |
| 2026-04-27 16:22 | 23.95166 | 90.31169 | 2288 ft | 164 kts | 150° |
| 2026-04-27 16:23 | 23.94273 | 90.31880 | 2092 ft | 154 kts | 149° |
| 2026-04-27 16:23 | 23.92635 | 90.33183 | 1711 ft | 142 kts | 148° |
| 2026-04-27 16:23 | 23.91835 | 90.33818 | 1528 ft | 140 kts | 146° |
| 2026-04-27 16:24 | 23.91039 | 90.34450 | 1346 ft | 143 kts | 146° |
| 2026-04-27 16:24 | 23.89430 | 90.35728 | 935 ft | 143 kts | 146° |
| 2026-04-27 16:25 | 23.87824 | 90.37004 | 610 ft | 142 kts | 143° |
| 2026-04-27 16:25 | 23.86229 | 90.38271 | 253 ft | 141 kts | 143° |
| 2026-04-27 16:26 | 23.84725 | 90.39469 | 37 ft | 104 kts | 143° |
| 2026-04-27 16:26 | 23.84084 | 90.40013 | 37 ft | 29 kts | 120° |
| 2026-04-27 16:27 | 23.83991 | 90.40282 | 36 ft | 16 kts | 92° |
| 2026-04-27 16:27 | 23.84148 | 90.40585 | 36 ft | 9 kts | 5° |
| 2026-04-27 16:28 | 23.84275 | 90.40526 | 35 ft | 11 kts | 30° |
| 2026-04-27 16:28 | 23.84365 | 90.40611 | 35 ft | 7 kts | 332° |
| 2026-04-27 16:29 | 23.84441 | 90.40669 | 36 ft | 3 kts | 54° |
| 2026-04-27 16:30 | 23.84444 | 90.40673 | 36 ft | 0 kts | 54° |